sensor_id;sensor_type;location;lat;lon;timestamp;noise_LAeq;noise_LA_min;noise_LA_max;noise_LA01;noise_LA95
37223;Laerm;28026;48.562;14.440;2023-04-01T00:01:48;60.89;35.94;89.68;;
37223;Laerm;28026;48.562;14.440;2023-04-01T00:04:19;45.29;35.94;69.64;;
37223;Laerm;28026;48.562;14.440;2023-04-01T00:06:51;53.07;35.36;79.52;;
37223;Laerm;28026;48.562;14.440;2023-04-01T00:09:22;43.30;36.20;63.62;;
37223;Laerm;28026;48.562;14.440;2023-04-01T00:11:53;43.92;34.69;64.35;;
37223;Laerm;28026;48.562;14.440;2023-04-01T00:14:24;45.52;35.94;69.18;;
37223;Laerm;28026;48.562;14.440;2023-04-01T00:16:54;42.36;35.94;61.71;;
37223;Laerm;28026;48.562;14.440;2023-04-01T00:19:25;42.55;35.36;62.70;;
37223;Laerm;28026;48.562;14.440;2023-04-01T00:21:56;41.45;36.20;55.51;;
37223;Laerm;28026;48.562;14.440;2023-04-01T00:24:27;41.52;34.69;61.21;;
37223;Laerm;28026;48.562;14.440;2023-04-01T00:26:58;43.51;35.66;69.32;;
37223;Laerm;28026;48.562;14.440;2023-04-01T00:29:29;49.85;34.69;75.82;;
37223;Laerm;28026;48.562;14.440;2023-04-01T00:32:01;42.65;33.90;65.23;;
37223;Laerm;28026;48.562;14.440;2023-04-01T00:34:32;42.74;35.04;58.30;;
37223;Laerm;28026;48.562;14.440;2023-04-01T00:37:03;45.88;37.12;69.84;;
37223;Laerm;28026;48.562;14.440;2023-04-01T00:39:35;54.91;35.36;78.92;;
37223;Laerm;28026;48.562;14.440;2023-04-01T00:42:09;53.71;35.31;80.46;;
37223;Laerm;28026;48.562;14.440;2023-04-01T00:44:42;48.88;34.31;75.47;;
37223;Laerm;28026;48.562;14.440;2023-04-01T00:47:13;47.76;34.69;69.48;;
37223;Laerm;28026;48.562;14.440;2023-04-01T00:49:50;58.58;35.94;88.46;;
37223;Laerm;28026;48.562;14.440;2023-04-01T00:52:25;51.61;35.66;75.01;;
37223;Laerm;28026;48.562;14.440;2023-04-01T00:55:00;58.63;36.20;88.32;;
37223;Laerm;28026;48.562;14.440;2023-04-01T00:57:37;50.73;34.69;79.21;;
37223;Laerm;28026;48.562;14.440;2023-04-01T01:00:14;49.25;33.90;76.05;;
37223;Laerm;28026;48.562;14.440;2023-04-01T01:02:50;50.32;36.45;73.74;;
37223;Laerm;28026;48.562;14.440;2023-04-01T01:15:59;55.99;35.66;84.53;;
37223;Laerm;28026;48.562;14.440;2023-04-01T01:27:29;49.11;37.12;80.92;;
37223;Laerm;28026;48.562;14.440;2023-04-01T01:30:37;61.92;36.20;88.74;;
37223;Laerm;28026;48.562;14.440;2023-04-01T01:36:29;48.67;35.66;72.32;;
37223;Laerm;28026;48.562;14.440;2023-04-01T01:39:06;47.53;35.94;72.26;;
37223;Laerm;28026;48.562;14.440;2023-04-01T01:41:42;48.26;36.45;73.19;;
37223;Laerm;28026;48.562;14.440;2023-04-01T01:44:19;53.94;37.12;79.58;;
37223;Laerm;28026;48.562;14.440;2023-04-01T01:46:51;50.79;36.98;76.51;;
37223;Laerm;28026;48.562;14.440;2023-04-01T01:49:24;51.89;37.52;78.16;;
37223;Laerm;28026;48.562;14.440;2023-04-01T01:51:56;51.02;35.94;75.77;;
37223;Laerm;28026;48.562;14.440;2023-04-01T01:54:27;51.52;35.66;79.71;;
37223;Laerm;28026;48.562;14.440;2023-04-01T01:57:09;49.04;35.66;72.99;;
37223;Laerm;28026;48.562;14.440;2023-04-01T01:59:45;50.20;35.36;75.13;;
37223;Laerm;28026;48.562;14.440;2023-04-01T02:02:18;49.28;38.67;75.29;;
37223;Laerm;28026;48.562;14.440;2023-04-01T02:04:52;42.64;35.36;62.48;;
37223;Laerm;28026;48.562;14.440;2023-04-01T02:07:35;42.08;34.69;58.57;;
37223;Laerm;28026;48.562;14.440;2023-04-01T02:10:07;48.95;34.31;70.60;;
37223;Laerm;28026;48.562;14.440;2023-04-01T02:12:43;46.36;34.69;73.30;;
37223;Laerm;28026;48.562;14.440;2023-04-01T02:15:21;47.73;35.66;73.27;;
37223;Laerm;28026;48.562;14.440;2023-04-01T02:17:52;49.21;33.90;78.44;;
37223;Laerm;28026;48.562;14.440;2023-04-01T02:20:24;48.28;33.90;75.89;;
37223;Laerm;28026;48.562;14.440;2023-04-01T02:22:58;45.90;35.94;76.75;;
37223;Laerm;28026;48.562;14.440;2023-04-01T02:25:37;47.40;35.66;73.82;;
37223;Laerm;28026;48.562;14.440;2023-04-01T02:28:13;48.53;33.90;71.55;;
37223;Laerm;28026;48.562;14.440;2023-04-01T02:30:49;44.78;34.69;68.78;;
37223;Laerm;28026;48.562;14.440;2023-04-01T02:33:21;42.20;33.90;65.46;;
37223;Laerm;28026;48.562;14.440;2023-04-01T02:35:52;46.05;35.66;74.06;;
37223;Laerm;28026;48.562;14.440;2023-04-01T02:38:23;56.55;34.31;80.11;;
37223;Laerm;28026;48.562;14.440;2023-04-01T02:41:02;52.81;36.69;79.63;;
37223;Laerm;28026;48.562;14.440;2023-04-01T02:43:33;43.53;35.86;67.68;;
37223;Laerm;28026;48.562;14.440;2023-04-01T02:46:04;48.89;36.20;72.38;;
37223;Laerm;28026;48.562;14.440;2023-04-01T02:48:35;49.27;34.69;80.44;;
37223;Laerm;28026;48.562;14.440;2023-04-01T02:51:06;54.59;35.36;81.96;;
37223;Laerm;28026;48.562;14.440;2023-04-01T02:53:37;54.79;35.94;81.89;;
37223;Laerm;28026;48.562;14.440;2023-04-01T02:56:08;52.24;35.36;76.60;;
37223;Laerm;28026;48.562;14.440;2023-04-01T02:58:39;52.38;33.90;81.06;;
37223;Laerm;28026;48.562;14.440;2023-04-01T03:01:09;49.73;35.04;73.11;;
37223;Laerm;28026;48.562;14.440;2023-04-01T03:03:41;47.41;35.36;72.61;;
37223;Laerm;28026;48.562;14.440;2023-04-01T03:06:15;48.35;35.04;71.59;;
37223;Laerm;28026;48.562;14.440;2023-04-01T03:08:46;54.78;35.36;77.70;;
37223;Laerm;28026;48.562;14.440;2023-04-01T03:11:17;62.80;35.94;92.98;;
37223;Laerm;28026;48.562;14.440;2023-04-01T03:13:48;61.09;37.70;86.63;;
37223;Laerm;28026;48.562;14.440;2023-04-01T03:16:19;43.74;36.45;63.28;;
37223;Laerm;28026;48.562;14.440;2023-04-01T03:18:50;53.01;36.45;79.34;;
37223;Laerm;28026;48.562;14.440;2023-04-01T03:21:24;54.17;35.94;84.28;;
37223;Laerm;28026;48.562;14.440;2023-04-01T03:23:55;51.84;35.94;79.59;;
37223;Laerm;28026;48.562;14.440;2023-04-01T03:26:26;48.92;36.20;73.32;;
37223;Laerm;28026;48.562;14.440;2023-04-01T03:29:00;44.43;35.36;64.71;;
37223;Laerm;28026;48.562;14.440;2023-04-01T03:31:31;43.79;37.52;59.83;;
37223;Laerm;28026;48.562;14.440;2023-04-01T03:34:02;43.77;36.20;65.89;;
37223;Laerm;28026;48.562;14.440;2023-04-01T03:36:32;52.75;36.20;84.09;;
37223;Laerm;28026;48.562;14.440;2023-04-01T03:39:04;51.74;36.45;80.78;;
37223;Laerm;28026;48.562;14.440;2023-04-01T03:41:37;44.68;34.69;65.58;;
37223;Laerm;28026;48.562;14.440;2023-04-01T03:44:08;44.27;35.04;68.49;;
37223;Laerm;28026;48.562;14.440;2023-04-01T03:46:40;45.69;35.66;74.67;;
37223;Laerm;28026;48.562;14.440;2023-04-01T03:49:11;44.04;36.20;57.81;;
37223;Laerm;28026;48.562;14.440;2023-04-01T03:51:44;44.05;37.52;58.16;;
37223;Laerm;28026;48.562;14.440;2023-04-01T03:54:14;43.24;35.04;59.77;;
37223;Laerm;28026;48.562;14.440;2023-04-01T03:56:46;43.84;38.05;59.89;;
37223;Laerm;28026;48.562;14.440;2023-04-01T03:59:17;44.35;36.69;62.39;;
37223;Laerm;28026;48.562;14.440;2023-04-01T04:01:48;44.71;36.91;63.79;;
37223;Laerm;28026;48.562;14.440;2023-04-01T04:04:19;46.58;35.36;63.80;;
37223;Laerm;28026;48.562;14.440;2023-04-01T04:06:50;47.46;38.37;72.97;;
37223;Laerm;28026;48.562;14.440;2023-04-01T04:09:22;49.99;36.91;77.21;;
37223;Laerm;28026;48.562;14.440;2023-04-01T04:11:53;46.99;36.69;73.25;;
37223;Laerm;28026;48.562;14.440;2023-04-01T04:14:24;43.73;36.45;62.53;;
37223;Laerm;28026;48.562;14.440;2023-04-01T04:16:55;46.42;37.52;70.56;;
37223;Laerm;28026;48.562;14.440;2023-04-01T04:19:26;45.35;36.45;66.09;;
37223;Laerm;28026;48.562;14.440;2023-04-01T04:21:57;55.71;36.91;87.16;;
37223;Laerm;28026;48.562;14.440;2023-04-01T04:24:31;59.80;37.88;85.80;;
37223;Laerm;28026;48.562;14.440;2023-04-01T04:27:03;50.82;36.69;78.40;;
37223;Laerm;28026;48.562;14.440;2023-04-01T04:29:34;49.06;36.45;75.57;;
37223;Laerm;28026;48.562;14.440;2023-04-01T04:32:05;43.77;38.05;64.27;;
37223;Laerm;28026;48.562;14.440;2023-04-01T04:34:36;43.42;37.70;64.26;;
37223;Laerm;28026;48.562;14.440;2023-04-01T04:37:07;57.09;38.05;82.28;;
37223;Laerm;28026;48.562;14.440;2023-04-01T04:39:38;57.31;36.69;84.87;;
37223;Laerm;28026;48.562;14.440;2023-04-01T04:42:09;52.07;37.88;77.24;;
37223;Laerm;28026;48.562;14.440;2023-04-01T04:44:39;58.17;37.35;84.03;;
37223;Laerm;28026;48.562;14.440;2023-04-01T04:47:10;50.32;36.69;76.76;;
37223;Laerm;28026;48.562;14.440;2023-04-01T04:49:41;51.84;36.45;75.35;;
37223;Laerm;28026;48.562;14.440;2023-04-01T04:52:12;47.20;39.34;69.94;;
37223;Laerm;28026;48.562;14.440;2023-04-01T04:54:43;45.51;38.95;68.25;;
37223;Laerm;28026;48.562;14.440;2023-04-01T04:57:14;55.89;38.21;82.35;;
37223;Laerm;28026;48.562;14.440;2023-04-01T04:59:45;49.16;37.70;73.60;;
37223;Laerm;28026;48.562;14.440;2023-04-01T05:02:16;49.35;37.12;74.56;;
37223;Laerm;28026;48.562;14.440;2023-04-01T05:04:47;54.42;38.52;82.84;;
37223;Laerm;28026;48.562;14.440;2023-04-01T05:07:18;46.75;39.46;69.39;;
37223;Laerm;28026;48.562;14.440;2023-04-01T05:09:49;46.37;39.81;60.39;;
37223;Laerm;28026;48.562;14.440;2023-04-01T05:12:20;48.34;38.81;72.97;;
37223;Laerm;28026;48.562;14.440;2023-04-01T05:14:51;48.81;38.95;73.66;;
37223;Laerm;28026;48.562;14.440;2023-04-01T05:17:22;52.31;38.67;79.58;;
37223;Laerm;28026;48.562;14.440;2023-04-01T05:19:53;50.75;38.52;77.93;;
37223;Laerm;28026;48.562;14.440;2023-04-01T05:22:24;48.68;37.88;72.51;;
37223;Laerm;28026;48.562;14.440;2023-04-01T05:24:55;52.47;39.08;78.49;;
37223;Laerm;28026;48.562;14.440;2023-04-01T05:27:26;60.06;37.70;88.40;;
37223;Laerm;28026;48.562;14.440;2023-04-01T05:29:57;44.79;38.81;71.35;;
37223;Laerm;28026;48.562;14.440;2023-04-01T05:32:28;53.35;38.67;80.89;;
37223;Laerm;28026;48.562;14.440;2023-04-01T05:35:01;59.71;38.67;82.64;;
37223;Laerm;28026;48.562;14.440;2023-04-01T05:37:34;51.15;37.88;76.97;;
37223;Laerm;28026;48.562;14.440;2023-04-01T05:40:07;54.76;38.21;86.96;;
37223;Laerm;28026;48.562;14.440;2023-04-01T05:42:38;53.81;38.05;76.73;;
37223;Laerm;28026;48.562;14.440;2023-04-01T05:45:09;51.11;38.37;75.83;;
37223;Laerm;28026;48.562;14.440;2023-04-01T05:47:41;64.43;38.18;89.16;;
37223;Laerm;28026;48.562;14.440;2023-04-01T05:50:12;54.15;37.12;77.91;;
37223;Laerm;28026;48.562;14.440;2023-04-01T05:52:43;50.06;37.52;75.82;;
37223;Laerm;28026;48.562;14.440;2023-04-01T05:55:15;64.39;37.32;93.26;;
37223;Laerm;28026;48.562;14.440;2023-04-01T05:57:46;46.19;39.21;66.23;;
37223;Laerm;28026;48.562;14.440;2023-04-01T06:00:19;46.29;37.32;71.62;;
37223;Laerm;28026;48.562;14.440;2023-04-01T06:02:50;63.09;38.37;90.60;;
37223;Laerm;28026;48.562;14.440;2023-04-01T06:05:30;55.08;37.70;82.08;;
37223;Laerm;28026;48.562;14.440;2023-04-01T06:08:17;51.21;39.21;78.44;;
37223;Laerm;28026;48.562;14.440;2023-04-01T06:11:01;55.35;38.67;84.74;;
37223;Laerm;28026;48.562;14.440;2023-04-01T06:24:02;60.29;38.21;86.23;;
37223;Laerm;28026;48.562;14.440;2023-04-01T06:27:20;59.57;38.05;84.00;;
37223;Laerm;28026;48.562;14.440;2023-04-01T06:36:05;49.50;38.02;79.00;;
37223;Laerm;28026;48.562;14.440;2023-04-01T06:51:06;46.62;38.81;66.34;;
37223;Laerm;28026;48.562;14.440;2023-04-01T06:54:18;51.83;37.32;82.33;;
37223;Laerm;28026;48.562;14.440;2023-04-01T06:57:01;53.69;38.52;78.82;;
37223;Laerm;28026;48.562;14.440;2023-04-01T06:59:37;54.90;40.62;77.89;;
37223;Laerm;28026;48.562;14.440;2023-04-01T07:02:47;51.23;39.46;70.95;;
37223;Laerm;28026;48.562;14.440;2023-04-01T07:05:22;48.13;38.81;72.65;;
37223;Laerm;28026;48.562;14.440;2023-04-01T07:08:02;54.05;36.45;82.36;;
37223;Laerm;28026;48.562;14.440;2023-04-01T07:11:04;45.63;37.88;72.14;;
37223;Laerm;28026;48.562;14.440;2023-04-01T07:13:45;45.24;38.18;63.16;;
37223;Laerm;28026;48.562;14.440;2023-04-01T07:16:51;48.65;38.67;76.74;;
37223;Laerm;28026;48.562;14.440;2023-04-01T07:19:57;54.96;38.95;83.38;;
37223;Laerm;28026;48.562;14.440;2023-04-01T07:22:43;62.30;38.21;88.52;;
37223;Laerm;28026;48.562;14.440;2023-04-01T07:25:20;56.02;38.21;80.65;;
37223;Laerm;28026;48.562;14.440;2023-04-01T07:28:12;53.87;38.95;77.88;;
37223;Laerm;28026;48.562;14.440;2023-04-01T07:30:57;49.70;38.21;71.58;;
37223;Laerm;28026;48.562;14.440;2023-04-01T07:43:15;51.78;36.69;76.85;;
37223;Laerm;28026;48.562;14.440;2023-04-01T07:46:11;64.78;37.12;94.30;;
37223;Laerm;28026;48.562;14.440;2023-04-01T07:49:04;58.12;38.37;85.10;;
37223;Laerm;28026;48.562;14.440;2023-04-01T07:55:23;58.60;39.58;86.00;;
37223;Laerm;28026;48.562;14.440;2023-04-01T07:58:32;55.75;37.12;80.84;;
37223;Laerm;28026;48.562;14.440;2023-04-01T08:01:40;56.97;38.95;85.31;;
37223;Laerm;28026;48.562;14.440;2023-04-01T08:07:25;56.84;40.53;82.96;;
37223;Laerm;28026;48.562;14.440;2023-04-01T08:10:39;60.62;40.23;84.64;;
37223;Laerm;28026;48.562;14.440;2023-04-01T08:14:13;54.66;39.70;84.46;;
37223;Laerm;28026;48.562;14.440;2023-04-01T08:17:13;51.59;39.70;76.83;;
37223;Laerm;28026;48.562;14.440;2023-04-01T08:23:14;53.90;40.43;76.50;;
37223;Laerm;28026;48.562;14.440;2023-04-01T08:26:06;55.18;41.68;86.23;;
37223;Laerm;28026;48.562;14.440;2023-04-01T08:29:04;57.30;38.67;84.60;;
37223;Laerm;28026;48.562;14.440;2023-04-01T08:32:34;64.59;40.33;91.31;;
37223;Laerm;28026;48.562;14.440;2023-04-01T08:35:40;60.67;39.70;86.93;;
37223;Laerm;28026;48.562;14.440;2023-04-01T08:38:34;50.15;39.46;71.72;;
37223;Laerm;28026;48.562;14.440;2023-04-01T08:45:03;55.81;40.03;79.50;;
37223;Laerm;28026;48.562;14.440;2023-04-01T08:54:48;54.27;40.89;76.50;;
37223;Laerm;28026;48.562;14.440;2023-04-01T09:11:16;64.10;41.53;89.63;;
37223;Laerm;28026;48.562;14.440;2023-04-01T09:20:44;51.09;38.37;77.62;;
37223;Laerm;28026;48.562;14.440;2023-04-01T09:35:46;53.33;34.69;80.67;;
37223;Laerm;28026;48.562;14.440;2023-04-01T09:38:40;59.97;37.32;86.54;;
37223;Laerm;28026;48.562;14.440;2023-04-01T09:41:32;51.39;34.69;75.86;;
37223;Laerm;28026;48.562;14.440;2023-04-01T09:44:35;60.21;36.45;84.15;;
37223;Laerm;28026;48.562;14.440;2023-04-01T09:51:17;67.72;38.67;92.59;;
37223;Laerm;28026;48.562;14.440;2023-04-01T09:57:25;53.76;38.37;88.19;;
37223;Laerm;28026;48.562;14.440;2023-04-01T10:18:03;65.58;36.20;92.51;;
37223;Laerm;28026;48.562;14.440;2023-04-01T10:21:29;64.11;36.69;94.92;;
37223;Laerm;28026;48.562;14.440;2023-04-01T10:27:39;61.71;38.21;86.98;;
37223;Laerm;28026;48.562;14.440;2023-04-01T10:37:08;65.61;41.06;97.08;;
37223;Laerm;28026;48.562;14.440;2023-04-01T10:53:37;63.43;39.34;91.05;;
37223;Laerm;28026;48.562;14.440;2023-04-01T10:56:40;64.95;39.46;90.26;;
37223;Laerm;28026;48.562;14.440;2023-04-01T11:13:47;65.91;39.34;92.47;;
37223;Laerm;28026;48.562;14.440;2023-04-01T11:20:06;69.45;38.67;92.69;;
37223;Laerm;28026;48.562;14.440;2023-04-01T11:23:20;60.07;39.21;85.71;;
37223;Laerm;28026;48.562;14.440;2023-04-01T11:33:19;61.28;38.52;89.56;;
37223;Laerm;28026;48.562;14.440;2023-04-01T11:39:24;63.72;36.45;93.01;;
37223;Laerm;28026;48.562;14.440;2023-04-01T11:58:54;61.82;38.81;86.73;;
37223;Laerm;28026;48.562;14.440;2023-04-01T12:02:05;65.91;37.52;89.59;;
37223;Laerm;28026;48.562;14.440;2023-04-01T12:04:57;58.34;35.94;88.51;;
37223;Laerm;28026;48.562;14.440;2023-04-01T12:08:09;66.41;36.20;94.73;;
37223;Laerm;28026;48.562;14.440;2023-04-01T12:17:34;62.98;37.70;88.54;;
37223;Laerm;28026;48.562;14.440;2023-04-01T12:20:25;61.06;37.32;85.21;;
37223;Laerm;28026;48.562;14.440;2023-04-01T12:26:19;60.49;38.52;86.02;;
37223;Laerm;28026;48.562;14.440;2023-04-01T12:36:19;64.70;36.45;92.85;;
37223;Laerm;28026;48.562;14.440;2023-04-01T12:40:03;55.72;36.69;84.71;;
37223;Laerm;28026;48.562;14.440;2023-04-01T12:46:32;52.18;34.31;79.51;;
37223;Laerm;28026;48.562;14.440;2023-04-01T12:55:55;61.31;39.08;86.40;;
37223;Laerm;28026;48.562;14.440;2023-04-01T12:59:06;59.00;38.05;86.21;;
37223;Laerm;28026;48.562;14.440;2023-04-01T13:02:24;57.89;39.08;87.10;;
37223;Laerm;28026;48.562;14.440;2023-04-01T13:15:52;64.85;39.34;92.43;;
37223;Laerm;28026;48.562;14.440;2023-04-01T13:28:37;46.13;37.32;67.71;;
37223;Laerm;28026;48.562;14.440;2023-04-01T13:43:35;64.37;38.95;94.24;;
37223;Laerm;28026;48.562;14.440;2023-04-01T13:50:01;60.31;39.34;85.85;;
37223;Laerm;28026;48.562;14.440;2023-04-01T13:59:46;69.35;39.21;93.37;;
37223;Laerm;28026;48.562;14.440;2023-04-01T14:02:55;57.87;36.91;82.27;;
37223;Laerm;28026;48.562;14.440;2023-04-01T14:09:19;64.91;39.34;92.23;;
37223;Laerm;28026;48.562;14.440;2023-04-01T14:12:22;54.80;37.88;81.58;;
37223;Laerm;28026;48.562;14.440;2023-04-01T14:16:05;67.89;37.70;96.58;;
37223;Laerm;28026;48.562;14.440;2023-04-01T14:32:56;65.58;38.67;88.09;;
37223;Laerm;28026;48.562;14.440;2023-04-01T14:43:19;54.18;37.12;86.58;;
37223;Laerm;28026;48.562;14.440;2023-04-01T14:47:02;60.33;38.05;92.63;;
37223;Laerm;28026;48.562;14.440;2023-04-01T14:50:04;67.92;35.94;93.72;;
37223;Laerm;28026;48.562;14.440;2023-04-01T14:52:57;55.96;36.91;82.01;;
37223;Laerm;28026;48.562;14.440;2023-04-01T14:55:48;58.44;37.12;86.45;;
37223;Laerm;28026;48.562;14.440;2023-04-01T14:58:45;60.47;38.05;86.72;;
37223;Laerm;28026;48.562;14.440;2023-04-01T15:01:40;61.33;36.91;93.23;;
37223;Laerm;28026;48.562;14.440;2023-04-01T15:11:13;57.68;36.91;83.72;;
37223;Laerm;28026;48.562;14.440;2023-04-01T15:20:50;62.53;45.20;86.60;;
37223;Laerm;28026;48.562;14.440;2023-04-01T15:26:42;61.33;40.03;88.56;;
37223;Laerm;28026;48.562;14.440;2023-04-01T15:30:14;65.69;40.71;88.92;;
37223;Laerm;28026;48.562;14.440;2023-04-01T15:33:46;54.32;39.08;79.22;;
37223;Laerm;28026;48.562;14.440;2023-04-01T15:40:04;67.54;39.08;99.63;;
37223;Laerm;28026;48.562;14.440;2023-04-01T15:46:44;68.78;38.18;94.66;;
37223;Laerm;28026;48.562;14.440;2023-04-01T15:49:43;64.57;37.70;90.48;;
37223;Laerm;28026;48.562;14.440;2023-04-01T15:52:55;55.74;37.52;79.13;;
37223;Laerm;28026;48.562;14.440;2023-04-01T15:56:35;66.00;38.21;90.86;;
37223;Laerm;28026;48.562;14.440;2023-04-01T16:15:34;47.61;34.69;76.14;;
37223;Laerm;28026;48.562;14.440;2023-04-01T16:18:32;44.06;35.94;66.61;;
37223;Laerm;28026;48.562;14.440;2023-04-01T16:21:37;44.43;38.05;61.25;;
37223;Laerm;28026;48.562;14.440;2023-04-01T16:28:29;51.11;39.08;75.94;;
37223;Laerm;28026;48.562;14.440;2023-04-01T16:31:58;52.04;37.12;80.23;;
37223;Laerm;28026;48.562;14.440;2023-04-01T16:41:19;46.38;37.70;64.99;;
37223;Laerm;28026;48.562;14.440;2023-04-01T16:44:22;59.66;36.91;85.87;;
37223;Laerm;28026;48.562;14.440;2023-04-01T16:47:09;56.11;38.05;79.92;;
37223;Laerm;28026;48.562;14.440;2023-04-01T16:53:19;50.20;38.67;74.04;;
37223;Laerm;28026;48.562;14.440;2023-04-01T16:56:11;65.40;39.81;91.84;;
37223;Laerm;28026;48.562;14.440;2023-04-01T16:59:34;65.30;36.20;92.42;;
37223;Laerm;28026;48.562;14.440;2023-04-01T17:02:14;52.30;36.45;80.91;;
37223;Laerm;28026;48.562;14.440;2023-04-01T17:05:08;55.27;36.20;88.06;;
37223;Laerm;28026;48.562;14.440;2023-04-01T17:08:09;52.50;34.31;82.85;;
37223;Laerm;28026;48.562;14.440;2023-04-01T17:14:54;53.66;36.91;80.77;;
37223;Laerm;28026;48.562;14.440;2023-04-01T17:18:00;66.17;35.66;95.37;;
37223;Laerm;28026;48.562;14.440;2023-04-01T17:20:59;43.06;33.90;70.66;;
37223;Laerm;28026;48.562;14.440;2023-04-01T17:23:52;65.51;38.95;92.11;;
37223;Laerm;28026;48.562;14.440;2023-04-01T17:26:47;55.23;38.37;82.63;;
37223;Laerm;28026;48.562;14.440;2023-04-01T17:33:02;57.63;35.36;81.64;;
37223;Laerm;28026;48.562;14.440;2023-04-01T17:36:12;58.03;35.94;85.38;;
37223;Laerm;28026;48.562;14.440;2023-04-01T17:43:30;50.43;35.04;71.09;;
37223;Laerm;28026;48.562;14.440;2023-04-01T17:45:57;51.46;37.52;76.01;;
37223;Laerm;28026;48.562;14.440;2023-04-01T17:49:19;50.60;35.36;78.68;;
37223;Laerm;28026;48.562;14.440;2023-04-01T17:58:34;41.75;34.69;67.03;;
37223;Laerm;28026;48.562;14.440;2023-04-01T18:01:46;42.35;34.31;62.25;;
37223;Laerm;28026;48.562;14.440;2023-04-01T18:04:44;41.12;35.66;64.77;;
37223;Laerm;28026;48.562;14.440;2023-04-01T18:10:29;56.25;33.44;81.39;;
37223;Laerm;28026;48.562;14.440;2023-04-01T18:16:28;42.59;35.94;65.74;;
37223;Laerm;28026;48.562;14.440;2023-04-01T18:20:19;42.94;35.04;60.88;;
37223;Laerm;28026;48.562;14.440;2023-04-01T18:22:44;45.88;38.05;77.27;;
37223;Laerm;28026;48.562;14.440;2023-04-01T18:25:39;42.41;34.69;67.59;;
37223;Laerm;28026;48.562;14.440;2023-04-01T18:28:56;51.67;35.04;84.91;;
37223;Laerm;28026;48.562;14.440;2023-04-01T18:31:42;41.22;35.36;49.15;;
37223;Laerm;28026;48.562;14.440;2023-04-01T18:34:52;42.14;34.31;66.35;;
37223;Laerm;28026;48.562;14.440;2023-04-01T18:41:38;40.36;31.68;65.64;;
37223;Laerm;28026;48.562;14.440;2023-04-01T18:44:48;41.10;33.90;69.51;;
37223;Laerm;28026;48.562;14.440;2023-04-01T18:47:36;42.56;32.93;65.22;;
37223;Laerm;28026;48.562;14.440;2023-04-01T18:53:23;44.96;35.94;71.93;;
37223;Laerm;28026;48.562;14.440;2023-04-01T18:56:06;45.14;34.69;75.68;;
37223;Laerm;28026;48.562;14.440;2023-04-01T18:59:33;41.19;32.93;62.01;;
37223;Laerm;28026;48.562;14.440;2023-04-01T19:02:49;45.81;35.04;73.25;;
37223;Laerm;28026;48.562;14.440;2023-04-01T19:05:38;39.23;33.90;55.84;;
37223;Laerm;28026;48.562;14.440;2023-04-01T19:08:35;39.82;32.93;61.40;;
37223;Laerm;28026;48.562;14.440;2023-04-01T19:11:43;41.47;34.69;63.62;;
37223;Laerm;28026;48.562;14.440;2023-04-01T19:21:14;40.07;34.31;55.48;;
37223;Laerm;28026;48.562;14.440;2023-04-01T19:24:51;42.42;36.45;57.51;;
37223;Laerm;28026;48.562;14.440;2023-04-01T19:27:51;41.98;32.93;62.92;;
37223;Laerm;28026;48.562;14.440;2023-04-01T19:31:39;44.59;34.69;68.75;;
37223;Laerm;28026;48.562;14.440;2023-04-01T19:34:52;45.22;34.31;70.11;;
37223;Laerm;28026;48.562;14.440;2023-04-01T19:37:59;54.67;37.52;81.55;;
37223;Laerm;28026;48.562;14.440;2023-04-01T19:46:56;42.37;31.68;65.35;;
37223;Laerm;28026;48.562;14.440;2023-04-01T19:52:40;48.42;37.52;75.66;;
37223;Laerm;28026;48.562;14.440;2023-04-01T19:55:39;40.83;33.90;61.05;;
37223;Laerm;28026;48.562;14.440;2023-04-01T19:58:31;43.82;34.31;69.11;;
37223;Laerm;28026;48.562;14.440;2023-04-01T20:01:14;41.67;32.93;62.86;;
37223;Laerm;28026;48.562;14.440;2023-04-01T20:03:58;43.34;34.69;69.96;;
37223;Laerm;28026;48.562;14.440;2023-04-01T20:12:47;49.25;34.31;77.60;;
37223;Laerm;28026;48.562;14.440;2023-04-01T20:15:44;44.24;34.69;73.71;;
37223;Laerm;28026;48.562;14.440;2023-04-01T20:18:36;40.20;34.31;64.29;;
37223;Laerm;28026;48.562;14.440;2023-04-01T20:24:20;52.30;35.36;80.86;;
37223;Laerm;28026;48.562;14.440;2023-04-01T20:27:45;45.23;33.90;66.40;;
37223;Laerm;28026;48.562;14.440;2023-04-01T20:36:58;47.97;34.31;73.16;;
37223;Laerm;28026;48.562;14.440;2023-04-01T20:40:35;42.12;33.90;71.13;;
37223;Laerm;28026;48.562;14.440;2023-04-01T20:50:48;47.71;34.69;76.24;;
37223;Laerm;28026;48.562;14.440;2023-04-01T21:02:48;41.56;33.90;65.38;;
37223;Laerm;28026;48.562;14.440;2023-04-01T21:15:47;47.05;33.44;75.40;;
37223;Laerm;28026;48.562;14.440;2023-04-01T21:35:41;44.94;34.31;67.87;;
37223;Laerm;28026;48.562;14.440;2023-04-01T21:38:34;45.68;32.93;75.58;;
37223;Laerm;28026;48.562;14.440;2023-04-01T21:41:55;41.67;30.89;67.74;;
37223;Laerm;28026;48.562;14.440;2023-04-01T21:44:54;44.74;33.55;70.28;;
37223;Laerm;28026;48.562;14.440;2023-04-01T21:51:33;39.69;32.35;61.09;;
37223;Laerm;28026;48.562;14.440;2023-04-01T21:54:35;41.18;33.44;60.22;;
37223;Laerm;28026;48.562;14.440;2023-04-01T22:07:23;46.01;32.35;70.85;;
37223;Laerm;28026;48.562;14.440;2023-04-01T22:13:29;38.35;32.93;55.56;;
37223;Laerm;28026;48.562;14.440;2023-04-01T22:19:09;46.09;33.90;69.37;;
37223;Laerm;28026;48.562;14.440;2023-04-01T22:22:11;41.48;34.31;61.40;;
37223;Laerm;28026;48.562;14.440;2023-04-01T22:28:03;45.99;35.66;75.41;;
37223;Laerm;28026;48.562;14.440;2023-04-01T22:30:50;42.99;33.90;67.19;;
37223;Laerm;28026;48.562;14.440;2023-04-01T22:49:54;40.72;30.89;64.14;;
37223;Laerm;28026;48.562;14.440;2023-04-01T22:52:42;46.57;32.35;72.32;;
37223;Laerm;28026;48.562;14.440;2023-04-01T22:55:38;51.19;32.93;79.98;;
37223;Laerm;28026;48.562;14.440;2023-04-01T22:58:24;47.46;32.93;76.21;;
37223;Laerm;28026;48.562;14.440;2023-04-01T23:01:06;50.65;32.35;80.29;;
37223;Laerm;28026;48.562;14.440;2023-04-01T23:03:44;40.72;33.90;56.20;;
37223;Laerm;28026;48.562;14.440;2023-04-01T23:06:40;42.34;35.31;58.66;;
37223;Laerm;28026;48.562;14.440;2023-04-01T23:09:23;41.67;33.44;53.00;;
37223;Laerm;28026;48.562;14.440;2023-04-01T23:12:08;39.68;32.35;51.50;;
37223;Laerm;28026;48.562;14.440;2023-04-01T23:15:00;39.58;32.93;59.44;;
37223;Laerm;28026;48.562;14.440;2023-04-01T23:17:52;39.86;33.44;57.60;;
37223;Laerm;28026;48.562;14.440;2023-04-01T23:27:03;40.48;32.93;56.24;;
37223;Laerm;28026;48.562;14.440;2023-04-01T23:29:37;38.04;31.68;51.11;;
37223;Laerm;28026;48.562;14.440;2023-04-01T23:32:24;39.11;32.35;57.20;;
37223;Laerm;28026;48.562;14.440;2023-04-01T23:34:59;40.39;33.90;58.61;;
37223;Laerm;28026;48.562;14.440;2023-04-01T23:37:32;40.06;33.44;52.59;;
37223;Laerm;28026;48.562;14.440;2023-04-01T23:40:03;38.22;32.93;54.12;;
37223;Laerm;28026;48.562;14.440;2023-04-01T23:42:41;40.43;33.44;63.46;;
37223;Laerm;28026;48.562;14.440;2023-04-01T23:45:17;43.40;33.44;64.57;;
37223;Laerm;28026;48.562;14.440;2023-04-01T23:47:52;42.34;33.44;68.79;;